sensor_id;sensor_type;location;lat;lon;timestamp;temperature;humidity
75819;DHT22;64453;51.944;9.796;2022-10-26T00:01:29;14.00;55.70
75819;DHT22;64453;51.944;9.796;2022-10-26T00:03:56;14.00;55.30
75819;DHT22;64453;51.944;9.796;2022-10-26T00:06:24;14.00;55.20
75819;DHT22;64453;51.944;9.796;2022-10-26T00:08:52;13.90;55.00
75819;DHT22;64453;51.944;9.796;2022-10-26T00:11:21;13.90;55.00
75819;DHT22;64453;51.944;9.796;2022-10-26T00:13:48;13.80;55.30
75819;DHT22;64453;51.944;9.796;2022-10-26T00:16:17;13.60;55.20
75819;DHT22;64453;51.944;9.796;2022-10-26T00:18:46;13.70;55.10
75819;DHT22;64453;51.944;9.796;2022-10-26T00:21:14;13.70;55.00
75819;DHT22;64453;51.944;9.796;2022-10-26T00:23:41;13.70;55.30
75819;DHT22;64453;51.944;9.796;2022-10-26T00:26:08;13.60;55.40
75819;DHT22;64453;51.944;9.796;2022-10-26T00:28:35;13.60;55.50
75819;DHT22;64453;51.944;9.796;2022-10-26T00:31:04;13.70;55.00
75819;DHT22;64453;51.944;9.796;2022-10-26T00:33:31;13.70;55.00
75819;DHT22;64453;51.944;9.796;2022-10-26T00:36:00;13.60;55.10
75819;DHT22;64453;51.944;9.796;2022-10-26T00:38:26;13.70;55.10
75819;DHT22;64453;51.944;9.796;2022-10-26T00:40:53;13.70;54.80
75819;DHT22;64453;51.944;9.796;2022-10-26T00:43:37;13.60;55.10
75819;DHT22;64453;51.944;9.796;2022-10-26T00:46:11;13.60;54.80
75819;DHT22;64453;51.944;9.796;2022-10-26T00:48:42;13.60;55.00
75819;DHT22;64453;51.944;9.796;2022-10-26T00:51:14;13.40;55.20
75819;DHT22;64453;51.944;9.796;2022-10-26T00:53:43;13.30;55.30
75819;DHT22;64453;51.944;9.796;2022-10-26T00:56:11;13.40;56.10
75819;DHT22;64453;51.944;9.796;2022-10-26T00:58:38;13.40;56.20
75819;DHT22;64453;51.944;9.796;2022-10-26T01:01:05;13.30;56.70
75819;DHT22;64453;51.944;9.796;2022-10-26T01:03:32;13.40;56.70
75819;DHT22;64453;51.944;9.796;2022-10-26T01:06:00;13.40;57.40
75819;DHT22;64453;51.944;9.796;2022-10-26T01:08:31;13.60;57.30
75819;DHT22;64453;51.944;9.796;2022-10-26T01:10:58;13.60;57.20
75819;DHT22;64453;51.944;9.796;2022-10-26T01:13:26;13.50;57.30
75819;DHT22;64453;51.944;9.796;2022-10-26T01:16:03;13.60;57.00
75819;DHT22;64453;51.944;9.796;2022-10-26T01:18:39;13.60;56.90
75819;DHT22;64453;51.944;9.796;2022-10-26T01:21:38;13.60;56.90
75819;DHT22;64453;51.944;9.796;2022-10-26T01:27:11;13.50;56.50
75819;DHT22;64453;51.944;9.796;2022-10-26T01:32:42;13.60;57.20
75819;DHT22;64453;51.944;9.796;2022-10-26T01:35:16;13.50;57.10
75819;DHT22;64453;51.944;9.796;2022-10-26T01:37:47;13.60;57.20
75819;DHT22;64453;51.944;9.796;2022-10-26T01:40:22;13.60;57.20
75819;DHT22;64453;51.944;9.796;2022-10-26T01:42:51;13.70;57.60
75819;DHT22;64453;51.944;9.796;2022-10-26T01:45:19;13.70;57.20
75819;DHT22;64453;51.944;9.796;2022-10-26T01:47:48;13.70;57.40
75819;DHT22;64453;51.944;9.796;2022-10-26T01:50:17;13.70;57.90
75819;DHT22;64453;51.944;9.796;2022-10-26T01:52:48;13.70;57.90
75819;DHT22;64453;51.944;9.796;2022-10-26T01:55:39;13.80;57.80
75819;DHT22;64453;51.944;9.796;2022-10-26T01:58:16;13.80;57.70
75819;DHT22;64453;51.944;9.796;2022-10-26T02:00:55;13.80;57.70
75819;DHT22;64453;51.944;9.796;2022-10-26T02:03:29;13.70;57.60
75819;DHT22;64453;51.944;9.796;2022-10-26T02:06:05;13.70;57.60
75819;DHT22;64453;51.944;9.796;2022-10-26T02:08:55;13.60;57.80
75819;DHT22;64453;51.944;9.796;2022-10-26T02:11:35;13.60;58.30
75819;DHT22;64453;51.944;9.796;2022-10-26T02:14:08;13.70;58.30
75819;DHT22;64453;51.944;9.796;2022-10-26T02:16:42;13.70;58.00
75819;DHT22;64453;51.944;9.796;2022-10-26T02:19:24;13.80;58.10
75819;DHT22;64453;51.944;9.796;2022-10-26T02:21:56;13.80;58.10
75819;DHT22;64453;51.944;9.796;2022-10-26T02:24:25;13.80;57.90
75819;DHT22;64453;51.944;9.796;2022-10-26T02:26:53;13.80;58.00
75819;DHT22;64453;51.944;9.796;2022-10-26T02:29:22;13.90;58.10
75819;DHT22;64453;51.944;9.796;2022-10-26T02:31:50;13.80;57.70
75819;DHT22;64453;51.944;9.796;2022-10-26T02:34:23;13.80;57.70
75819;DHT22;64453;51.944;9.796;2022-10-26T02:36:53;13.80;58.00
75819;DHT22;64453;51.944;9.796;2022-10-26T02:39:22;13.60;58.30
75819;DHT22;64453;51.944;9.796;2022-10-26T02:41:50;13.50;58.60
75819;DHT22;64453;51.944;9.796;2022-10-26T02:44:21;13.50;58.60
75819;DHT22;64453;51.944;9.796;2022-10-26T02:46:49;13.60;58.70
75819;DHT22;64453;51.944;9.796;2022-10-26T02:49:20;13.70;58.80
75819;DHT22;64453;51.944;9.796;2022-10-26T02:51:49;13.80;58.70
75819;DHT22;64453;51.944;9.796;2022-10-26T02:54:25;13.80;58.60
75819;DHT22;64453;51.944;9.796;2022-10-26T02:56:56;13.80;58.20
75819;DHT22;64453;51.944;9.796;2022-10-26T02:59:28;13.80;58.40
75819;DHT22;64453;51.944;9.796;2022-10-26T03:01:56;13.80;58.40
75819;DHT22;64453;51.944;9.796;2022-10-26T03:04:28;13.80;58.40
75819;DHT22;64453;51.944;9.796;2022-10-26T03:06:56;13.80;58.50
75819;DHT22;64453;51.944;9.796;2022-10-26T03:09:22;13.80;58.40
75819;DHT22;64453;51.944;9.796;2022-10-26T03:11:49;13.80;58.20
75819;DHT22;64453;51.944;9.796;2022-10-26T03:14:16;13.80;58.50
75819;DHT22;64453;51.944;9.796;2022-10-26T03:16:43;13.70;58.40
75819;DHT22;64453;51.944;9.796;2022-10-26T03:19:13;13.70;58.60
75819;DHT22;64453;51.944;9.796;2022-10-26T03:21:41;13.70;58.50
75819;DHT22;64453;51.944;9.796;2022-10-26T03:24:08;13.70;58.70
75819;DHT22;64453;51.944;9.796;2022-10-26T03:26:35;13.70;59.10
75819;DHT22;64453;51.944;9.796;2022-10-26T03:29:02;13.70;58.80
75819;DHT22;64453;51.944;9.796;2022-10-26T03:31:29;13.70;58.60
75819;DHT22;64453;51.944;9.796;2022-10-26T03:33:55;13.70;58.60
75819;DHT22;64453;51.944;9.796;2022-10-26T03:36:22;13.80;58.40
75819;DHT22;64453;51.944;9.796;2022-10-26T03:38:50;13.60;59.30
75819;DHT22;64453;51.944;9.796;2022-10-26T03:41:17;13.60;58.50
75819;DHT22;64453;51.944;9.796;2022-10-26T03:43:44;13.60;58.70
75819;DHT22;64453;51.944;9.796;2022-10-26T03:46:10;13.60;58.80
75819;DHT22;64453;51.944;9.796;2022-10-26T03:48:37;13.60;58.30
75819;DHT22;64453;51.944;9.796;2022-10-26T03:51:04;13.50;58.40
75819;DHT22;64453;51.944;9.796;2022-10-26T03:53:31;13.60;58.30
75819;DHT22;64453;51.944;9.796;2022-10-26T03:55:59;13.50;58.50
75819;DHT22;64453;51.944;9.796;2022-10-26T03:58:26;13.40;58.80
75819;DHT22;64453;51.944;9.796;2022-10-26T04:00:53;13.40;59.00
75819;DHT22;64453;51.944;9.796;2022-10-26T04:03:20;13.40;59.00
75819;DHT22;64453;51.944;9.796;2022-10-26T04:05:47;13.40;59.00
75819;DHT22;64453;51.944;9.796;2022-10-26T04:08:14;13.40;59.20
75819;DHT22;64453;51.944;9.796;2022-10-26T04:10:40;13.40;58.70
75819;DHT22;64453;51.944;9.796;2022-10-26T04:13:09;13.50;58.70
75819;DHT22;64453;51.944;9.796;2022-10-26T04:15:36;13.40;58.70
75819;DHT22;64453;51.944;9.796;2022-10-26T04:18:03;13.40;59.10
75819;DHT22;64453;51.944;9.796;2022-10-26T04:20:31;13.40;59.50
75819;DHT22;64453;51.944;9.796;2022-10-26T04:23:00;13.30;58.90
75819;DHT22;64453;51.944;9.796;2022-10-26T04:25:27;13.30;59.00
75819;DHT22;64453;51.944;9.796;2022-10-26T04:27:54;13.20;59.40
75819;DHT22;64453;51.944;9.796;2022-10-26T04:30:22;13.30;59.50
75819;DHT22;64453;51.944;9.796;2022-10-26T04:32:49;13.30;59.90
75819;DHT22;64453;51.944;9.796;2022-10-26T04:35:16;13.40;59.50
75819;DHT22;64453;51.944;9.796;2022-10-26T04:37:43;13.40;59.10
75819;DHT22;64453;51.944;9.796;2022-10-26T04:40:10;13.40;59.10
75819;DHT22;64453;51.944;9.796;2022-10-26T04:42:41;13.30;59.00
75819;DHT22;64453;51.944;9.796;2022-10-26T04:45:09;13.30;59.40
75819;DHT22;64453;51.944;9.796;2022-10-26T04:47:37;13.30;60.30
75819;DHT22;64453;51.944;9.796;2022-10-26T04:50:05;13.40;59.80
75819;DHT22;64453;51.944;9.796;2022-10-26T04:52:32;13.40;60.10
75819;DHT22;64453;51.944;9.796;2022-10-26T04:54:59;13.40;59.90
75819;DHT22;64453;51.944;9.796;2022-10-26T04:57:26;13.40;60.00
75819;DHT22;64453;51.944;9.796;2022-10-26T04:59:53;13.50;60.70
75819;DHT22;64453;51.944;9.796;2022-10-26T05:02:19;13.50;61.20
75819;DHT22;64453;51.944;9.796;2022-10-26T05:04:48;13.40;61.20
75819;DHT22;64453;51.944;9.796;2022-10-26T05:07:15;13.40;62.80
75819;DHT22;64453;51.944;9.796;2022-10-26T05:09:41;13.50;62.20
75819;DHT22;64453;51.944;9.796;2022-10-26T05:12:10;13.50;62.20
75819;DHT22;64453;51.944;9.796;2022-10-26T05:14:38;13.60;62.20
75819;DHT22;64453;51.944;9.796;2022-10-26T05:17:05;13.60;62.30
75819;DHT22;64453;51.944;9.796;2022-10-26T05:19:32;13.60;61.70
75819;DHT22;64453;51.944;9.796;2022-10-26T05:22:00;13.60;62.80
75819;DHT22;64453;51.944;9.796;2022-10-26T05:24:27;13.60;61.90
75819;DHT22;64453;51.944;9.796;2022-10-26T05:26:53;13.60;61.30
75819;DHT22;64453;51.944;9.796;2022-10-26T05:29:20;13.60;62.20
75819;DHT22;64453;51.944;9.796;2022-10-26T05:31:47;13.60;61.70
75819;DHT22;64453;51.944;9.796;2022-10-26T05:34:14;13.50;61.30
75819;DHT22;64453;51.944;9.796;2022-10-26T05:36:41;13.50;61.30
75819;DHT22;64453;51.944;9.796;2022-10-26T05:39:09;13.40;62.50
75819;DHT22;64453;51.944;9.796;2022-10-26T05:41:36;13.50;61.90
75819;DHT22;64453;51.944;9.796;2022-10-26T05:44:03;13.50;61.70
75819;DHT22;64453;51.944;9.796;2022-10-26T05:46:29;13.50;61.50
75819;DHT22;64453;51.944;9.796;2022-10-26T05:48:56;13.40;61.90
75819;DHT22;64453;51.944;9.796;2022-10-26T05:51:25;13.40;64.20
75819;DHT22;64453;51.944;9.796;2022-10-26T05:53:52;13.40;64.40
75819;DHT22;64453;51.944;9.796;2022-10-26T05:56:33;13.50;62.20
75819;DHT22;64453;51.944;9.796;2022-10-26T05:59:01;13.50;61.40
75819;DHT22;64453;51.944;9.796;2022-10-26T06:01:36;13.50;61.00
75819;DHT22;64453;51.944;9.796;2022-10-26T06:04:16;13.50;61.80
75819;DHT22;64453;51.944;9.796;2022-10-26T06:06:46;13.50;61.20
75819;DHT22;64453;51.944;9.796;2022-10-26T06:09:15;13.40;61.90
75819;DHT22;64453;51.944;9.796;2022-10-26T06:11:44;13.40;61.70
75819;DHT22;64453;51.944;9.796;2022-10-26T06:14:11;13.50;61.60
75819;DHT22;64453;51.944;9.796;2022-10-26T06:16:48;13.50;62.10
75819;DHT22;64453;51.944;9.796;2022-10-26T06:19:26;13.50;61.40
75819;DHT22;64453;51.944;9.796;2022-10-26T06:22:03;13.50;62.10
75819;DHT22;64453;51.944;9.796;2022-10-26T06:24:39;13.60;61.90
75819;DHT22;64453;51.944;9.796;2022-10-26T06:27:18;13.60;61.30
75819;DHT22;64453;51.944;9.796;2022-10-26T06:29:54;13.60;61.40
75819;DHT22;64453;51.944;9.796;2022-10-26T06:32:23;13.50;61.70
75819;DHT22;64453;51.944;9.796;2022-10-26T06:34:54;13.60;62.50
75819;DHT22;64453;51.944;9.796;2022-10-26T06:37:22;13.60;61.70
75819;DHT22;64453;51.944;9.796;2022-10-26T06:39:50;13.60;61.70
75819;DHT22;64453;51.944;9.796;2022-10-26T06:42:19;13.60;62.20
75819;DHT22;64453;51.944;9.796;2022-10-26T06:44:47;13.40;62.40
75819;DHT22;64453;51.944;9.796;2022-10-26T06:47:19;13.50;62.80
75819;DHT22;64453;51.944;9.796;2022-10-26T06:49:56;13.60;63.20
75819;DHT22;64453;51.944;9.796;2022-10-26T06:52:30;13.50;63.90
75819;DHT22;64453;51.944;9.796;2022-10-26T06:54:59;13.60;64.40
75819;DHT22;64453;51.944;9.796;2022-10-26T06:57:31;13.40;65.40
75819;DHT22;64453;51.944;9.796;2022-10-26T07:00:02;13.50;65.30
75819;DHT22;64453;51.944;9.796;2022-10-26T07:02:29;13.50;65.40
75819;DHT22;64453;51.944;9.796;2022-10-26T07:04:56;13.70;65.80
75819;DHT22;64453;51.944;9.796;2022-10-26T07:07:24;13.60;66.10
75819;DHT22;64453;51.944;9.796;2022-10-26T07:09:52;13.70;66.20
75819;DHT22;64453;51.944;9.796;2022-10-26T07:12:19;13.80;66.60
75819;DHT22;64453;51.944;9.796;2022-10-26T07:14:47;13.90;66.60
75819;DHT22;64453;51.944;9.796;2022-10-26T07:17:13;13.90;66.50
75819;DHT22;64453;51.944;9.796;2022-10-26T07:19:41;13.90;66.80
75819;DHT22;64453;51.944;9.796;2022-10-26T07:22:09;14.00;67.20
75819;DHT22;64453;51.944;9.796;2022-10-26T07:24:36;14.10;67.30
75819;DHT22;64453;51.944;9.796;2022-10-26T07:27:03;14.10;67.60
75819;DHT22;64453;51.944;9.796;2022-10-26T07:29:30;14.20;67.90
75819;DHT22;64453;51.944;9.796;2022-10-26T07:31:58;14.20;67.80
75819;DHT22;64453;51.944;9.796;2022-10-26T07:34:24;14.20;68.60
75819;DHT22;64453;51.944;9.796;2022-10-26T07:36:51;14.30;68.20
75819;DHT22;64453;51.944;9.796;2022-10-26T07:39:18;14.20;69.20
75819;DHT22;64453;51.944;9.796;2022-10-26T07:41:45;14.30;69.20
75819;DHT22;64453;51.944;9.796;2022-10-26T07:44:12;14.30;69.90
75819;DHT22;64453;51.944;9.796;2022-10-26T07:46:38;14.40;69.70
75819;DHT22;64453;51.944;9.796;2022-10-26T07:49:07;14.40;69.90
75819;DHT22;64453;51.944;9.796;2022-10-26T07:51:33;14.50;69.90
75819;DHT22;64453;51.944;9.796;2022-10-26T07:54:00;14.50;69.90
75819;DHT22;64453;51.944;9.796;2022-10-26T07:56:27;14.60;70.00
75819;DHT22;64453;51.944;9.796;2022-10-26T07:58:55;14.60;69.80
75819;DHT22;64453;51.944;9.796;2022-10-26T08:01:23;14.60;70.10
75819;DHT22;64453;51.944;9.796;2022-10-26T08:03:51;14.60;70.60
75819;DHT22;64453;51.944;9.796;2022-10-26T08:06:19;14.60;70.70
75819;DHT22;64453;51.944;9.796;2022-10-26T08:08:46;14.70;71.30
75819;DHT22;64453;51.944;9.796;2022-10-26T08:11:12;14.70;71.40
75819;DHT22;64453;51.944;9.796;2022-10-26T08:13:39;14.70;71.60
75819;DHT22;64453;51.944;9.796;2022-10-26T08:16:07;14.70;71.90
75819;DHT22;64453;51.944;9.796;2022-10-26T08:18:36;14.80;72.50
75819;DHT22;64453;51.944;9.796;2022-10-26T08:21:04;14.90;72.60
75819;DHT22;64453;51.944;9.796;2022-10-26T08:23:33;14.90;72.80
75819;DHT22;64453;51.944;9.796;2022-10-26T08:26:00;15.00;72.80
75819;DHT22;64453;51.944;9.796;2022-10-26T08:28:27;15.00;72.90
75819;DHT22;64453;51.944;9.796;2022-10-26T08:30:54;15.10;73.10
75819;DHT22;64453;51.944;9.796;2022-10-26T08:33:22;15.20;73.30
75819;DHT22;64453;51.944;9.796;2022-10-26T08:35:49;15.20;73.60
75819;DHT22;64453;51.944;9.796;2022-10-26T08:38:20;15.20;73.90
75819;DHT22;64453;51.944;9.796;2022-10-26T08:40:48;15.20;73.90
75819;DHT22;64453;51.944;9.796;2022-10-26T08:43:18;15.30;74.00
75819;DHT22;64453;51.944;9.796;2022-10-26T08:45:50;15.30;73.90
75819;DHT22;64453;51.944;9.796;2022-10-26T08:48:20;15.40;73.80
75819;DHT22;64453;51.944;9.796;2022-10-26T08:50:52;15.40;73.60
75819;DHT22;64453;51.944;9.796;2022-10-26T08:53:23;15.40;73.70
75819;DHT22;64453;51.944;9.796;2022-10-26T08:55:56;15.40;73.70
75819;DHT22;64453;51.944;9.796;2022-10-26T08:58:27;15.50;73.70
75819;DHT22;64453;51.944;9.796;2022-10-26T09:00:55;15.60;73.70
75819;DHT22;64453;51.944;9.796;2022-10-26T09:03:21;15.60;73.60
75819;DHT22;64453;51.944;9.796;2022-10-26T09:06:04;15.60;73.50
75819;DHT22;64453;51.944;9.796;2022-10-26T09:08:37;15.60;73.60
75819;DHT22;64453;51.944;9.796;2022-10-26T09:11:14;15.70;73.80
75819;DHT22;64453;51.944;9.796;2022-10-26T09:13:51;15.70;73.40
75819;DHT22;64453;51.944;9.796;2022-10-26T09:16:27;15.80;73.20
75819;DHT22;64453;51.944;9.796;2022-10-26T09:19:13;15.90;73.30
75819;DHT22;64453;51.944;9.796;2022-10-26T09:21:51;15.90;73.30
75819;DHT22;64453;51.944;9.796;2022-10-26T09:24:26;16.00;73.30
75819;DHT22;64453;51.944;9.796;2022-10-26T09:26:59;16.00;73.10
75819;DHT22;64453;51.944;9.796;2022-10-26T09:29:30;16.10;73.10
75819;DHT22;64453;51.944;9.796;2022-10-26T09:32:00;16.10;72.90
75819;DHT22;64453;51.944;9.796;2022-10-26T09:34:33;16.10;72.50
75819;DHT22;64453;51.944;9.796;2022-10-26T09:37:13;16.20;72.20
75819;DHT22;64453;51.944;9.796;2022-10-26T09:39:45;16.20;72.00
75819;DHT22;64453;51.944;9.796;2022-10-26T09:42:23;16.30;71.90
75819;DHT22;64453;51.944;9.796;2022-10-26T09:44:55;16.30;71.70
75819;DHT22;64453;51.944;9.796;2022-10-26T09:47:30;16.30;71.50
75819;DHT22;64453;51.944;9.796;2022-10-26T09:50:04;16.30;71.30
75819;DHT22;64453;51.944;9.796;2022-10-26T09:52:32;16.40;71.30
75819;DHT22;64453;51.944;9.796;2022-10-26T09:54:59;16.40;71.10
75819;DHT22;64453;51.944;9.796;2022-10-26T09:57:27;16.50;71.10
75819;DHT22;64453;51.944;9.796;2022-10-26T09:59:55;16.50;71.00
75819;DHT22;64453;51.944;9.796;2022-10-26T10:02:36;16.50;70.80
75819;DHT22;64453;51.944;9.796;2022-10-26T10:05:23;16.50;70.70
75819;DHT22;64453;51.944;9.796;2022-10-26T10:07:50;16.50;70.60
75819;DHT22;64453;51.944;9.796;2022-10-26T10:10:19;16.50;70.50
75819;DHT22;64453;51.944;9.796;2022-10-26T10:12:49;16.50;70.50
75819;DHT22;64453;51.944;9.796;2022-10-26T10:15:19;16.50;70.60
75819;DHT22;64453;51.944;9.796;2022-10-26T10:17:47;16.50;70.70
75819;DHT22;64453;51.944;9.796;2022-10-26T10:20:19;16.50;70.70
75819;DHT22;64453;51.944;9.796;2022-10-26T10:22:57;16.50;70.60
75819;DHT22;64453;51.944;9.796;2022-10-26T10:25:32;16.50;70.50
75819;DHT22;64453;51.944;9.796;2022-10-26T10:28:02;16.50;69.80
75819;DHT22;64453;51.944;9.796;2022-10-26T10:30:31;16.50;69.70
75819;DHT22;64453;51.944;9.796;2022-10-26T10:33:07;16.50;69.50
75819;DHT22;64453;51.944;9.796;2022-10-26T10:35:39;16.60;69.80
75819;DHT22;64453;51.944;9.796;2022-10-26T10:38:16;16.60;69.30
75819;DHT22;64453;51.944;9.796;2022-10-26T10:40:49;16.60;68.60
75819;DHT22;64453;51.944;9.796;2022-10-26T10:43:19;16.70;68.70
75819;DHT22;64453;51.944;9.796;2022-10-26T10:45:47;16.70;68.50
75819;DHT22;64453;51.944;9.796;2022-10-26T10:48:16;16.80;68.50
75819;DHT22;64453;51.944;9.796;2022-10-26T10:50:52;16.80;68.30
75819;DHT22;64453;51.944;9.796;2022-10-26T10:53:22;16.80;68.20
75819;DHT22;64453;51.944;9.796;2022-10-26T10:56:12;16.80;68.80
75819;DHT22;64453;51.944;9.796;2022-10-26T10:58:53;16.90;69.10
75819;DHT22;64453;51.944;9.796;2022-10-26T11:01:27;16.90;69.30
75819;DHT22;64453;51.944;9.796;2022-10-26T11:04:15;17.00;69.40
75819;DHT22;64453;51.944;9.796;2022-10-26T11:06:47;17.00;69.20
75819;DHT22;64453;51.944;9.796;2022-10-26T11:09:17;17.00;69.20
75819;DHT22;64453;51.944;9.796;2022-10-26T11:11:49;17.00;68.80
75819;DHT22;64453;51.944;9.796;2022-10-26T11:14:22;17.10;68.30
75819;DHT22;64453;51.944;9.796;2022-10-26T11:16:54;17.10;68.20
75819;DHT22;64453;51.944;9.796;2022-10-26T11:19:24;17.10;68.40
75819;DHT22;64453;51.944;9.796;2022-10-26T11:21:54;17.20;68.80
75819;DHT22;64453;51.944;9.796;2022-10-26T11:24:25;17.20;69.10
75819;DHT22;64453;51.944;9.796;2022-10-26T11:26:54;17.20;69.70
75819;DHT22;64453;51.944;9.796;2022-10-26T11:29:30;17.20;69.80
75819;DHT22;64453;51.944;9.796;2022-10-26T11:32:02;17.20;69.60
75819;DHT22;64453;51.944;9.796;2022-10-26T11:34:37;17.20;69.70
75819;DHT22;64453;51.944;9.796;2022-10-26T11:37:12;17.20;69.80
75819;DHT22;64453;51.944;9.796;2022-10-26T11:39:44;17.20;69.60
75819;DHT22;64453;51.944;9.796;2022-10-26T11:42:25;17.20;69.70
75819;DHT22;64453;51.944;9.796;2022-10-26T11:45:02;17.20;70.00
75819;DHT22;64453;51.944;9.796;2022-10-26T11:47:34;17.20;70.10
75819;DHT22;64453;51.944;9.796;2022-10-26T11:50:09;17.20;69.80
75819;DHT22;64453;51.944;9.796;2022-10-26T11:52:43;17.30;69.40
75819;DHT22;64453;51.944;9.796;2022-10-26T11:55:10;17.30;69.70
75819;DHT22;64453;51.944;9.796;2022-10-26T11:57:38;17.30;69.80
75819;DHT22;64453;51.944;9.796;2022-10-26T12:00:14;17.30;69.80
75819;DHT22;64453;51.944;9.796;2022-10-26T12:02:42;17.40;69.50
75819;DHT22;64453;51.944;9.796;2022-10-26T12:05:19;17.40;69.40
75819;DHT22;64453;51.944;9.796;2022-10-26T12:07:49;17.50;69.20
75819;DHT22;64453;51.944;9.796;2022-10-26T12:10:24;17.50;69.10
75819;DHT22;64453;51.944;9.796;2022-10-26T12:12:56;17.60;68.70
75819;DHT22;64453;51.944;9.796;2022-10-26T12:15:29;17.70;68.50
75819;DHT22;64453;51.944;9.796;2022-10-26T12:18:04;17.70;67.80
75819;DHT22;64453;51.944;9.796;2022-10-26T12:20:53;17.70;67.50
75819;DHT22;64453;51.944;9.796;2022-10-26T12:23:22;17.80;67.40
75819;DHT22;64453;51.944;9.796;2022-10-26T12:25:49;17.80;67.10
75819;DHT22;64453;51.944;9.796;2022-10-26T12:28:38;17.80;67.00
75819;DHT22;64453;51.944;9.796;2022-10-26T12:31:42;17.90;66.80
75819;DHT22;64453;51.944;9.796;2022-10-26T12:34:11;18.00;66.00
75819;DHT22;64453;51.944;9.796;2022-10-26T12:36:52;17.90;66.50
75819;DHT22;64453;51.944;9.796;2022-10-26T12:39:36;18.00;66.20
75819;DHT22;64453;51.944;9.796;2022-10-26T12:42:17;18.00;65.80
75819;DHT22;64453;51.944;9.796;2022-10-26T12:45:17;18.00;66.20
75819;DHT22;64453;51.944;9.796;2022-10-26T12:48:04;18.00;66.10
75819;DHT22;64453;51.944;9.796;2022-10-26T12:50:30;18.10;66.90
75819;DHT22;64453;51.944;9.796;2022-10-26T12:53:00;18.00;66.40
75819;DHT22;64453;51.944;9.796;2022-10-26T12:55:55;18.10;66.40
75819;DHT22;64453;51.944;9.796;2022-10-26T12:58:58;18.00;66.60
75819;DHT22;64453;51.944;9.796;2022-10-26T13:02:06;18.10;66.60
75819;DHT22;64453;51.944;9.796;2022-10-26T13:07:39;18.20;67.00
75819;DHT22;64453;51.944;9.796;2022-10-26T13:10:17;18.20;66.80
75819;DHT22;64453;51.944;9.796;2022-10-26T13:12:47;18.20;66.80
75819;DHT22;64453;51.944;9.796;2022-10-26T13:15:23;18.20;66.40
75819;DHT22;64453;51.944;9.796;2022-10-26T13:18:06;18.20;66.30
75819;DHT22;64453;51.944;9.796;2022-10-26T13:20:36;18.30;66.40
75819;DHT22;64453;51.944;9.796;2022-10-26T13:23:14;18.30;66.40
75819;DHT22;64453;51.944;9.796;2022-10-26T13:25:41;18.40;65.60
75819;DHT22;64453;51.944;9.796;2022-10-26T13:28:43;18.50;65.70
75819;DHT22;64453;51.944;9.796;2022-10-26T13:31:13;18.50;66.10
75819;DHT22;64453;51.944;9.796;2022-10-26T13:33:45;18.60;66.00
75819;DHT22;64453;51.944;9.796;2022-10-26T13:36:21;18.60;65.70
75819;DHT22;64453;51.944;9.796;2022-10-26T13:38:52;18.70;65.80
75819;DHT22;64453;51.944;9.796;2022-10-26T13:41:24;18.80;66.00
75819;DHT22;64453;51.944;9.796;2022-10-26T13:43:53;18.90;65.90
75819;DHT22;64453;51.944;9.796;2022-10-26T13:46:27;18.90;65.50
75819;DHT22;64453;51.944;9.796;2022-10-26T13:48:59;18.90;65.40
75819;DHT22;64453;51.944;9.796;2022-10-26T13:51:38;19.00;65.60
75819;DHT22;64453;51.944;9.796;2022-10-26T13:54:17;19.00;65.50
75819;DHT22;64453;51.944;9.796;2022-10-26T13:57:03;19.00;65.70
75819;DHT22;64453;51.944;9.796;2022-10-26T13:59:32;18.90;65.70
75819;DHT22;64453;51.944;9.796;2022-10-26T14:02:13;18.90;66.10
75819;DHT22;64453;51.944;9.796;2022-10-26T14:04:44;18.90;66.50
75819;DHT22;64453;51.944;9.796;2022-10-26T14:07:17;18.90;66.30
75819;DHT22;64453;51.944;9.796;2022-10-26T14:09:52;18.90;66.40
75819;DHT22;64453;51.944;9.796;2022-10-26T14:12:19;19.00;66.70
75819;DHT22;64453;51.944;9.796;2022-10-26T14:14:46;19.00;66.60
75819;DHT22;64453;51.944;9.796;2022-10-26T14:17:18;19.10;66.40
75819;DHT22;64453;51.944;9.796;2022-10-26T14:19:45;19.10;65.90
75819;DHT22;64453;51.944;9.796;2022-10-26T14:22:19;19.10;65.70
75819;DHT22;64453;51.944;9.796;2022-10-26T14:24:51;19.10;65.80
75819;DHT22;64453;51.944;9.796;2022-10-26T14:27:19;19.10;65.90
75819;DHT22;64453;51.944;9.796;2022-10-26T14:29:46;19.10;66.10
75819;DHT22;64453;51.944;9.796;2022-10-26T14:32:25;19.10;66.20
75819;DHT22;64453;51.944;9.796;2022-10-26T14:34:53;19.10;66.20
75819;DHT22;64453;51.944;9.796;2022-10-26T14:37:33;19.10;66.20
75819;DHT22;64453;51.944;9.796;2022-10-26T14:40:04;19.20;66.30
75819;DHT22;64453;51.944;9.796;2022-10-26T14:42:34;19.30;66.40
75819;DHT22;64453;51.944;9.796;2022-10-26T14:45:03;19.30;66.00
75819;DHT22;64453;51.944;9.796;2022-10-26T14:47:32;19.30;66.20
75819;DHT22;64453;51.944;9.796;2022-10-26T14:50:00;19.40;66.00
75819;DHT22;64453;51.944;9.796;2022-10-26T14:52:31;19.40;66.00
75819;DHT22;64453;51.944;9.796;2022-10-26T14:54:59;19.40;66.10
75819;DHT22;64453;51.944;9.796;2022-10-26T14:57:37;19.40;66.20
75819;DHT22;64453;51.944;9.796;2022-10-26T15:00:13;19.40;65.90
75819;DHT22;64453;51.944;9.796;2022-10-26T15:02:41;19.40;65.90
75819;DHT22;64453;51.944;9.796;2022-10-26T15:05:20;19.40;65.80
75819;DHT22;64453;51.944;9.796;2022-10-26T15:07:53;19.40;65.80
75819;DHT22;64453;51.944;9.796;2022-10-26T15:10:53;19.40;65.90
75819;DHT22;64453;51.944;9.796;2022-10-26T15:13:26;19.40;65.70
75819;DHT22;64453;51.944;9.796;2022-10-26T15:15:56;19.40;65.60
75819;DHT22;64453;51.944;9.796;2022-10-26T15:18:25;19.40;65.60
75819;DHT22;64453;51.944;9.796;2022-10-26T15:20:53;19.40;65.70
75819;DHT22;64453;51.944;9.796;2022-10-26T15:23:22;19.40;65.70
75819;DHT22;64453;51.944;9.796;2022-10-26T15:25:52;19.40;65.60
75819;DHT22;64453;51.944;9.796;2022-10-26T15:28:22;19.40;65.60
75819;DHT22;64453;51.944;9.796;2022-10-26T15:31:03;19.30;65.60
75819;DHT22;64453;51.944;9.796;2022-10-26T15:33:31;19.30;65.70
75819;DHT22;64453;51.944;9.796;2022-10-26T15:36:15;19.30;65.90
75819;DHT22;64453;51.944;9.796;2022-10-26T15:38:44;19.30;65.90
75819;DHT22;64453;51.944;9.796;2022-10-26T15:41:14;19.30;66.00
75819;DHT22;64453;51.944;9.796;2022-10-26T15:43:42;19.30;66.40
75819;DHT22;64453;51.944;9.796;2022-10-26T15:46:09;19.20;66.40
75819;DHT22;64453;51.944;9.796;2022-10-26T15:48:36;19.20;66.60
75819;DHT22;64453;51.944;9.796;2022-10-26T15:51:05;19.20;66.70
75819;DHT22;64453;51.944;9.796;2022-10-26T15:53:32;19.10;66.40
75819;DHT22;64453;51.944;9.796;2022-10-26T15:56:01;19.10;66.40
75819;DHT22;64453;51.944;9.796;2022-10-26T15:58:30;19.10;66.70
75819;DHT22;64453;51.944;9.796;2022-10-26T16:00:57;19.00;67.10
75819;DHT22;64453;51.944;9.796;2022-10-26T16:03:25;19.00;67.20
75819;DHT22;64453;51.944;9.796;2022-10-26T16:05:55;19.00;67.20